Time;durP1;ratioP1;P1;durP2;ratioP2;P2;SDS_P1;SDS_P2;PMS_P1;PMS_P2;Temp;Humidity;BMP_temperature;BMP_pressure;BME280_temperature;BME280_humidity;BME280_pressure;Samples;Min_cycle;Max_cycle;Signal;HPM_P1;HPM_P2
2020/12/22 00:01:45;;;;;;;17.83;12.43;;;;;;;5.70;97.22;100776.34;4981102;28;20034;-76
2020/12/22 00:04:11;;;;;;;22.70;14.50;;;;;;;5.75;97.50;100794.25;4995145;28;20041;-76
2020/12/22 00:06:36;;;;;;;25.05;15.18;;;;;;;5.64;97.58;100777.63;5003031;28;20034;-79
2020/12/22 00:09:02;;;;;;;20.83;14.32;;;;;;;5.69;97.38;100779.91;5003065;28;20046;-76
2020/12/22 00:11:29;;;;;;;21.33;14.90;;;;;;;5.72;97.62;100779.66;4997051;28;20620;-75
2020/12/22 00:13:55;;;;;;;19.88;13.73;;;;;;;5.79;97.37;100780.88;4979651;28;20038;-77
2020/12/22 00:16:20;;;;;;;22.20;14.73;;;;;;;5.77;97.55;100782.75;4978650;28;20078;-76
2020/12/22 00:18:46;;;;;;;19.77;13.68;;;;;;;5.80;97.78;100781.69;4979512;28;20038;-76
2020/12/22 00:21:11;;;;;;;21.98;13.57;;;;;;;5.77;98.05;100777.56;4996666;28;20138;-76
2020/12/22 00:23:37;;;;;;;21.55;13.35;;;;;;;5.79;97.96;100770.47;4980304;28;20489;-77
2020/12/22 00:26:02;;;;;;;24.15;14.02;;;;;;;5.79;97.95;100773.06;5005662;28;20130;-75
2020/12/22 00:28:28;;;;;;;20.13;13.13;;;;;;;5.79;98.13;100761.84;4990099;28;20416;-77
2020/12/22 00:30:53;;;;;;;20.95;14.20;;;;;;;5.80;97.93;100764.31;4995188;28;20038;-76
2020/12/22 00:33:19;;;;;;;18.25;13.02;;;;;;;5.80;98.15;100756.53;4994856;28;20042;-76
2020/12/22 00:35:44;;;;;;;23.98;14.43;;;;;;;5.75;98.41;100750.00;4962470;28;20401;-78
2020/12/22 00:38:10;;;;;;;21.85;14.35;;;;;;;5.81;98.56;100744.31;4989559;28;20058;-76
2020/12/22 00:40:36;;;;;;;22.05;14.38;;;;;;;5.82;98.47;100740.75;4992071;28;20093;-76
2020/12/22 00:43:03;;;;;;;21.20;13.65;;;;;;;5.87;98.64;100732.63;4996709;28;20038;-75
2020/12/22 00:45:29;;;;;;;18.92;13.88;;;;;;;5.76;98.63;100731.63;4997852;28;20105;-76
2020/12/22 00:47:55;;;;;;;19.45;13.65;;;;;;;5.81;98.82;100718.28;4999929;28;20069;-77
2020/12/22 00:50:20;;;;;;;18.77;13.23;;;;;;;5.80;98.85;100711.41;4974445;28;20069;-76
2020/12/22 00:52:46;;;;;;;23.60;14.88;;;;;;;5.86;98.62;100718.78;5015638;28;20485;-75
2020/12/22 00:55:15;;;;;;;19.48;14.05;;;;;;;5.86;98.52;100718.78;5006423;28;20042;-78
2020/12/22 00:57:43;;;;;;;19.45;14.48;;;;;;;5.85;98.75;100709.31;4982440;28;20093;-77
2020/12/22 01:00:12;;;;;;;19.85;14.27;;;;;;;5.88;98.63;100705.63;4977308;28;20594;-77
2020/12/22 01:02:38;;;;;;;18.85;13.45;;;;;;;5.87;98.58;100702.19;4992795;28;20430;-77
2020/12/22 01:05:04;;;;;;;23.23;15.10;;;;;;;5.84;99.19;100695.47;4980226;28;20034;-77
2020/12/22 01:07:29;;;;;;;19.33;13.10;;;;;;;5.92;98.54;100694.06;5002884;28;20040;-77
2020/12/22 01:09:55;;;;;;;18.05;13.50;;;;;;;5.92;98.90;100699.25;4987565;28;20030;-77
2020/12/22 01:12:20;;;;;;;20.70;13.38;;;;;;;5.94;98.48;100698.19;4973654;28;20043;-77
2020/12/22 01:14:46;;;;;;;20.85;12.55;;;;;;;5.97;98.66;100700.59;4995628;28;20026;-76
2020/12/22 01:17:11;;;;;;;19.95;13.85;;;;;;;5.97;98.68;100691.94;5018293;28;20038;-77
2020/12/22 01:19:37;;;;;;;18.10;13.40;;;;;;;6.04;98.66;100695.72;4997040;28;20539;-76
2020/12/22 01:22:02;;;;;;;18.63;12.65;;;;;;;5.99;98.91;100688.28;4987987;28;20054;-77
2020/12/22 01:24:28;;;;;;;16.88;11.35;;;;;;;6.08;98.80;100685.91;4982041;28;20133;-76
2020/12/22 01:26:54;;;;;;;17.33;11.60;;;;;;;6.13;98.81;100683.78;4968697;28;20073;-77
2020/12/22 01:29:20;;;;;;;15.93;10.93;;;;;;;6.13;98.45;100679.41;4998311;28;20397;-78
2020/12/22 01:31:46;;;;;;;16.45;11.48;;;;;;;6.16;98.43;100683.53;4983342;28;20624;-78
2020/12/22 01:34:13;;;;;;;16.38;11.68;;;;;;;6.16;98.79;100686.13;4993544;28;20034;-77
2020/12/22 01:36:38;;;;;;;13.55;10.57;;;;;;;6.14;98.60;100672.41;4979021;28;20073;-77
2020/12/22 01:39:04;;;;;;;19.35;12.98;;;;;;;6.11;98.87;100665.66;4985598;28;20110;-76
2020/12/22 01:41:34;;;;;;;17.48;11.73;;;;;;;6.07;98.77;100664.25;5000150;28;20034;-78
2020/12/22 01:44:12;;;;;;;18.00;11.90;;;;;;;6.08;98.40;100662.47;4994573;28;20048;-76
2020/12/22 01:46:43;;;;;;;17.00;12.10;;;;;;;6.10;98.95;100661.41;4999100;28;20133;-77
2020/12/22 01:49:28;;;;;;;16.70;13.07;;;;;;;6.06;99.00;100653.97;4987066;28;20058;-76
2020/12/22 01:51:58;;;;;;;20.13;12.88;;;;;;;6.07;99.20;100650.41;4995977;28;20041;-76
2020/12/22 01:54:25;;;;;;;15.90;11.98;;;;;;;6.10;99.16;100640.56;4992674;28;20030;-78
2020/12/22 01:56:51;;;;;;;18.13;12.35;;;;;;;6.10;99.29;100632.75;4979117;28;20070;-76
2020/12/22 01:59:17;;;;;;;15.27;11.45;;;;;;;6.08;99.04;100632.03;4985838;28;20032;-76
2020/12/22 02:01:43;;;;;;;18.90;10.85;;;;;;;6.13;99.20;100622.09;4983552;28;20501;-78
2020/12/22 02:04:11;;;;;;;14.13;10.20;;;;;;;6.18;98.85;100619.16;4996000;28;20084;-76
2020/12/22 02:06:37;;;;;;;15.43;10.63;;;;;;;6.16;98.90;100621.88;4970671;28;20033;-78
2020/12/22 02:09:08;;;;;;;15.32;11.05;;;;;;;6.21;99.02;100624.09;5014257;28;20027;-76
2020/12/22 02:11:34;;;;;;;14.88;10.60;;;;;;;6.20;99.18;100618.06;4996809;28;20034;-77
2020/12/22 02:14:02;;;;;;;15.60;10.70;;;;;;;6.20;99.35;100615.47;5006006;28;20034;-76
2020/12/22 02:16:27;;;;;;;20.73;11.45;;;;;;;6.20;98.98;100610.25;4999179;28;20026;-77
2020/12/22 02:18:54;;;;;;;16.33;10.32;;;;;;;6.22;99.36;100597.94;4995936;28;20455;-76
2020/12/22 02:21:20;;;;;;;14.52;10.07;;;;;;;6.24;99.58;100608.25;4989594;28;20489;-76
2020/12/22 02:23:52;;;;;;;14.07;10.15;;;;;;;6.27;99.08;100601.94;4987938;28;20042;-77
2020/12/22 02:26:22;;;;;;;13.80;9.23;;;;;;;6.29;98.96;100600.91;4992032;28;20039;-78
2020/12/22 02:28:48;;;;;;;17.05;10.18;;;;;;;6.21;99.23;100593.66;4979478;28;20041;-77
2020/12/22 02:31:14;;;;;;;12.55;8.93;;;;;;;6.22;99.41;100600.53;4971374;28;20074;-77
2020/12/22 02:33:39;;;;;;;12.32;9.27;;;;;;;6.26;99.04;100587.28;4996807;28;20041;-77
2020/12/22 02:36:09;;;;;;;14.50;9.82;;;;;;;6.27;99.62;100589.75;4968416;28;20050;-76
2020/12/22 02:38:35;;;;;;;15.45;10.15;;;;;;;6.24;99.75;100575.19;4959335;28;20525;-76
2020/12/22 02:41:01;;;;;;;13.93;10.10;;;;;;;6.27;99.49;100574.13;4980121;28;20061;-76
2020/12/22 02:43:26;;;;;;;15.02;10.68;;;;;;;6.30;99.44;100560.88;4992163;28;20038;-76
2020/12/22 02:45:52;;;;;;;13.13;8.93;;;;;;;6.39;99.74;100559.31;4979153;28;20034;-76
2020/12/22 02:48:17;;;;;;;12.85;9.02;;;;;;;6.35;99.80;100550.09;4984635;28;20042;-78
2020/12/22 02:50:43;;;;;;;12.68;9.48;;;;;;;6.34;99.39;100551.03;4987800;28;20026;-75
2020/12/22 02:53:08;;;;;;;12.95;9.30;;;;;;;6.35;99.80;100547.47;5006316;28;20034;-76
2020/12/22 02:55:34;;;;;;;14.00;10.35;;;;;;;6.34;99.69;100538.81;4965432;28;20588;-78
2020/12/22 02:58:00;;;;;;;14.05;9.63;;;;;;;6.34;99.78;100540.59;4976496;28;20042;-77
2020/12/22 03:00:26;;;;;;;14.05;9.15;;;;;;;6.32;100.00;100532.09;4962167;28;20085;-75
2020/12/22 03:02:52;;;;;;;9.85;7.95;;;;;;;6.33;99.86;100536.34;4988095;28;20097;-77
2020/12/22 03:05:18;;;;;;;10.43;8.13;;;;;;;6.38;100.00;100532.41;4991860;28;20030;-78
2020/12/22 03:07:44;;;;;;;12.23;9.30;;;;;;;6.45;100.00;100534.53;4989053;28;20034;-75
2020/12/22 03:10:12;;;;;;;10.98;7.90;;;;;;;6.48;100.00;100537.72;4984753;28;20038;-77
2020/12/22 03:12:37;;;;;;;14.80;9.80;;;;;;;6.50;100.00;100514.97;4978714;28;20034;-76
2020/12/22 03:15:05;;;;;;;12.25;7.68;;;;;;;6.57;99.79;100516.13;4963185;28;20124;-78
2020/12/22 03:17:31;;;;;;;12.02;7.53;;;;;;;6.61;100.00;100507.09;4979083;28;20570;-77
2020/12/22 03:19:56;;;;;;;7.63;5.78;;;;;;;6.56;100.00;100495.41;4980834;28;20054;-79
2020/12/22 03:22:22;;;;;;;11.35;6.88;;;;;;;6.65;100.00;100492.03;4979355;28;20041;-77
2020/12/22 03:24:47;;;;;;;10.07;7.28;;;;;;;6.68;100.00;100496.16;5012137;28;20041;-77
2020/12/22 03:27:13;;;;;;;8.27;6.15;;;;;;;6.71;100.00;100483.69;4994966;28;20037;-77
2020/12/22 03:29:39;;;;;;;8.13;5.35;;;;;;;6.74;100.00;100474.78;4979346;28;20034;-77
2020/12/22 03:32:04;;;;;;;8.73;5.63;;;;;;;6.71;100.00;100468.06;4995770;28;20443;-77
2020/12/22 03:34:31;;;;;;;6.18;4.90;;;;;;;6.91;100.00;100475.97;4995300;28;20034;-79
2020/12/22 03:36:57;;;;;;;6.70;4.07;;;;;;;6.97;100.00;100460.66;4963382;28;20068;-79
2020/12/22 03:39:22;;;;;;;5.25;4.10;;;;;;;7.00;100.00;100452.53;4984292;28;20038;-79
2020/12/22 03:41:48;;;;;;;6.28;4.38;;;;;;;7.15;100.00;100457.44;4964685;28;20052;-77
2020/12/22 03:44:13;;;;;;;4.97;3.70;;;;;;;7.13;100.00;100449.72;4995409;28;20068;-77
2020/12/22 03:46:39;;;;;;;5.35;3.97;;;;;;;7.13;100.00;100441.09;4963302;28;20436;-80
2020/12/22 03:49:05;;;;;;;4.60;3.83;;;;;;;7.16;100.00;100440.84;4986242;28;20675;-76
2020/12/22 03:51:30;;;;;;;4.38;3.45;;;;;;;7.27;100.00;100435.53;4995749;28;20061;-77
2020/12/22 03:53:56;;;;;;;3.53;3.22;;;;;;;7.22;100.00;100428.06;4996665;28;20121;-78
2020/12/22 03:56:21;;;;;;;3.67;3.03;;;;;;;7.29;100.00;100423.16;5031623;28;20112;-77
2020/12/22 03:58:47;;;;;;;3.55;3.13;;;;;;;7.28;100.00;100412.84;4998861;28;20129;-78
2020/12/22 04:01:13;;;;;;;3.42;3.13;;;;;;;7.35;100.00;100413.97;4998543;28;20132;-79
2020/12/22 04:03:39;;;;;;;3.35;3.05;;;;;;;7.53;100.00;100416.75;4982379;28;20041;-77
2020/12/22 04:06:04;;;;;;;2.97;2.67;;;;;;;7.45;99.86;100427.84;4976491;28;20042;-76
2020/12/22 04:08:30;;;;;;;4.28;2.80;;;;;;;7.47;100.00;100415.50;4997655;28;20533;-77
2020/12/22 04:10:55;;;;;;;3.22;2.95;;;;;;;7.50;100.00;100407.41;5020383;28;20041;-77
2020/12/22 04:13:21;;;;;;;3.08;2.72;;;;;;;7.61;100.00;100419.53;4974105;28;20038;-78
2020/12/22 04:15:46;;;;;;;2.55;2.05;;;;;;;7.66;99.93;100409.47;5002973;28;20065;-77
2020/12/22 04:18:12;;;;;;;3.08;2.10;;;;;;;7.64;100.00;100415.81;5011231;28;20038;-77
2020/12/22 04:20:38;;;;;;;2.08;1.88;;;;;;;7.66;99.75;100403.44;4978104;28;20427;-77
2020/12/22 04:23:03;;;;;;;3.50;2.28;;;;;;;7.63;100.00;100404.56;4986972;28;20066;-76
2020/12/22 04:25:29;;;;;;;3.42;2.38;;;;;;;7.70;99.99;100404.81;4977531;28;20034;-77
2020/12/22 04:27:54;;;;;;;2.40;2.00;;;;;;;7.73;99.98;100401.94;4995135;28;20552;-78
2020/12/22 04:30:20;;;;;;;2.45;1.73;;;;;;;7.73;99.97;100409.78;4977946;28;20039;-75
2020/12/22 04:32:45;;;;;;;2.53;1.45;;;;;;;7.72;100.00;100413.34;4993852;28;20092;-79
2020/12/22 04:35:11;;;;;;;3.10;1.77;;;;;;;7.75;99.90;100403.44;5012599;28;20760;-78
2020/12/22 04:37:36;;;;;;;1.90;1.55;;;;;;;7.83;100.00;100409.78;4998742;28;20066;-78
2020/12/22 04:40:03;;;;;;;2.08;1.40;;;;;;;7.83;99.86;100408.00;4990440;28;20509;-77
2020/12/22 04:42:32;;;;;;;5.18;1.67;;;;;;;7.78;100.00;100403.19;4997731;28;20065;-78
2020/12/22 04:44:58;;;;;;;3.45;1.40;;;;;;;7.82;99.96;100401.13;4997891;28;20096;-77
2020/12/22 04:47:25;;;;;;;2.00;1.30;;;;;;;7.87;99.57;100392.88;4994078;28;20035;-77
2020/12/22 04:49:53;;;;;;;3.22;1.30;;;;;;;7.95;99.65;100396.47;4977972;28;20042;-76
2020/12/22 04:52:21;;;;;;;2.08;1.00;;;;;;;7.99;99.73;100394.41;4980739;28;20034;-77
2020/12/22 04:54:47;;;;;;;1.73;1.02;;;;;;;7.96;99.82;100392.88;4989352;28;20034;-76
2020/12/22 04:57:14;;;;;;;2.90;1.10;;;;;;;7.98;99.79;100392.72;5016710;28;20721;-79
2020/12/22 04:59:43;;;;;;;3.75;1.10;;;;;;;8.04;99.80;100397.41;5006357;28;20040;-78
2020/12/22 05:02:09;;;;;;;1.92;1.10;;;;;;;8.03;99.32;100393.16;4996919;28;20448;-78
2020/12/22 05:04:38;;;;;;;4.13;1.08;;;;;;;8.05;99.58;100388.63;4993905;28;20034;-77
2020/12/22 05:07:07;;;;;;;2.78;1.05;;;;;;;8.05;99.89;100385.19;4986141;28;20065;-74
2020/12/22 05:09:33;;;;;;;3.45;1.00;;;;;;;8.05;100.00;100386.00;5003838;28;20054;-77
2020/12/22 05:11:59;;;;;;;3.42;0.75;;;;;;;8.06;99.90;100374.59;4994464;28;20045;-76
2020/12/22 05:14:26;;;;;;;1.63;0.77;;;;;;;8.21;99.84;100380.19;4997609;28;20037;-77
2020/12/22 05:16:51;;;;;;;2.47;1.00;;;;;;;8.16;99.90;100385.84;5002056;28;20066;-76
2020/12/22 05:19:20;;;;;;;3.20;0.57;;;;;;;8.36;99.71;100373.59;4996921;28;20053;-76
2020/12/22 05:21:46;;;;;;;0.57;0.50;;;;;;;8.52;99.75;100386.09;4988408;28;20030;-76
2020/12/22 05:24:13;;;;;;;0.93;0.60;;;;;;;8.69;100.00;100383.72;4996115;28;20034;-77
2020/12/22 05:26:40;;;;;;;1.10;0.75;;;;;;;8.83;100.00;100387.63;5005606;28;20034;-77
2020/12/22 05:29:13;;;;;;;3.00;1.50;;;;;;;8.99;100.00;100387.03;4997595;28;20495;-77
2020/12/22 05:31:48;;;;;;;1.60;1.50;;;;;;;9.03;99.47;100383.97;4997651;28;20041;-77
2020/12/22 05:34:14;;;;;;;2.10;1.98;;;;;;;9.20;99.86;100398.06;4980709;28;20548;-76
2020/12/22 05:36:41;;;;;;;2.33;2.15;;;;;;;9.28;100.00;100385.06;4980753;28;20066;-77
2020/12/22 05:39:09;;;;;;;2.50;2.30;;;;;;;9.27;99.04;100386.06;4983932;28;20049;-77
2020/12/22 05:41:35;;;;;;;3.33;3.03;;;;;;;9.42;99.53;100388.16;4969672;28;20404;-77
2020/12/22 05:44:01;;;;;;;5.93;3.50;;;;;;;9.42;99.28;100381.13;4980196;28;20049;-76
2020/12/22 05:46:29;;;;;;;4.38;4.03;;;;;;;9.54;99.08;100384.38;5002547;28;20030;-77
2020/12/22 05:49:02;;;;;;;5.90;4.45;;;;;;;9.61;99.07;100390.66;4982298;28;20045;-77
2020/12/22 05:51:28;;;;;;;5.60;5.07;;;;;;;9.64;99.18;100389.53;4996591;28;20624;-77
2020/12/22 05:53:54;;;;;;;8.38;5.57;;;;;;;9.77;99.39;100376.06;4996409;28;20045;-77
2020/12/22 05:56:23;;;;;;;7.22;6.15;;;;;;;9.79;98.81;100380.16;4991757;28;20035;-77
2020/12/22 05:58:49;;;;;;;6.90;6.05;;;;;;;9.80;98.85;100387.06;4961155;28;20074;-77
2020/12/22 06:01:29;;;;;;;8.90;6.28;;;;;;;9.90;98.57;100379.13;4961399;28;20512;-76
2020/12/22 06:03:55;;;;;;;7.20;6.55;;;;;;;9.94;98.17;100381.31;4980841;28;20158;-77
2020/12/22 06:06:24;;;;;;;7.20;6.53;;;;;;;9.90;98.36;100377.31;4968410;28;20054;-76
2020/12/22 06:08:50;;;;;;;7.15;6.55;;;;;;;9.92;97.85;100383.22;4977062;28;20094;-77
2020/12/22 06:11:15;;;;;;;7.60;6.47;;;;;;;9.92;98.81;100385.03;4944894;28;20039;-78
2020/12/22 06:13:41;;;;;;;7.80;6.97;;;;;;;9.95;98.92;100374.25;4977631;28;20043;-76
2020/12/22 06:16:21;;;;;;;7.72;6.70;;;;;;;10.10;98.31;100391.09;4977510;28;20035;-78
2020/12/22 06:18:49;;;;;;;7.35;6.38;;;;;;;10.22;98.43;100390.84;4990319;28;20027;-77
2020/12/22 06:21:21;;;;;;;7.30;6.60;;;;;;;10.26;98.45;100390.38;4991941;28;20121;-77
2020/12/22 06:23:49;;;;;;;7.60;6.90;;;;;;;10.30;97.90;100402.25;4960085;28;20048;-77
2020/12/22 06:26:18;;;;;;;11.35;7.60;;;;;;;10.27;98.14;100402.50;4973580;28;20081;-77
2020/12/22 06:28:44;;;;;;;8.15;7.35;;;;;;;10.14;97.86;100395.03;5007367;28;20462;-77
2020/12/22 06:31:20;;;;;;;8.20;7.40;;;;;;;10.25;98.13;100395.78;4988549;28;20069;-77
2020/12/22 06:33:46;;;;;;;7.65;6.95;;;;;;;10.31;98.28;100397.81;5002572;28;20412;-76
2020/12/22 06:36:14;;;;;;;7.75;6.80;;;;;;;10.32;98.40;100391.59;4970567;28;20068;-77
2020/12/22 06:38:50;;;;;;;8.35;5.90;;;;;;;10.34;98.22;100384.41;4995081;28;20045;-77
2020/12/22 06:41:26;;;;;;;5.40;4.90;;;;;;;10.46;97.80;100400.72;4995397;28;20042;-78
2020/12/22 06:43:55;;;;;;;4.97;4.50;;;;;;;10.42;97.96;100402.81;4978820;28;20050;-77
2020/12/22 06:46:33;;;;;;;3.55;3.25;;;;;;;10.45;97.74;100407.75;4979731;28;20034;-77
2020/12/22 06:48:59;;;;;;;3.10;2.90;;;;;;;10.48;97.82;100411.88;4979249;28;20034;-77
2020/12/22 06:51:30;;;;;;;3.60;2.75;;;;;;;10.48;97.97;100412.69;5000294;28;20026;-78
2020/12/22 06:53:56;;;;;;;3.03;2.60;;;;;;;10.52;97.75;100411.41;4964054;28;20465;-77
2020/12/22 06:56:41;;;;;;;3.35;2.00;;;;;;;10.55;97.47;100412.91;4968244;28;20042;-77
2020/12/22 06:59:11;;;;;;;3.30;1.70;;;;;;;10.55;97.47;100414.69;4974648;28;20050;-76
2020/12/22 07:01:38;;;;;;;3.63;1.73;;;;;;;10.52;97.60;100431.56;4982935;28;20512;-78
2020/12/22 07:04:18;;;;;;;2.95;2.13;;;;;;;10.53;97.75;100433.22;4992261;28;20038;-77
2020/12/22 07:06:47;;;;;;;2.35;2.15;;;;;;;10.47;98.10;100432.03;4977313;28;20034;-78
2020/12/22 07:09:13;;;;;;;2.38;2.20;;;;;;;10.52;98.08;100442.03;4995002;28;20034;-77
2020/12/22 07:11:41;;;;;;;2.10;1.90;;;;;;;10.54;97.87;100447.97;5008772;28;20041;-78
2020/12/22 07:14:07;;;;;;;3.70;2.20;;;;;;;10.55;97.65;100447.00;5017643;28;20037;-77
2020/12/22 07:17:05;;;;;;;6.28;2.30;;;;;;;10.61;97.97;100450.81;5000088;28;20042;-77
2020/12/22 07:19:32;;;;;;;2.33;2.13;;;;;;;10.64;98.23;100439.97;4958442;28;20049;-77
2020/12/22 07:21:59;;;;;;;2.20;2.00;;;;;;;10.64;97.75;100432.13;4996789;28;20034;-77
2020/12/22 07:24:27;;;;;;;2.55;2.00;;;;;;;10.64;97.51;100445.22;4998965;28;20120;-77
2020/12/22 07:26:53;;;;;;;2.17;2.00;;;;;;;10.63;97.69;100454.09;4998470;28;20062;-78
2020/12/22 07:29:19;;;;;;;4.72;2.40;;;;;;;10.60;97.80;100457.00;4995665;28;20038;-77
2020/12/22 07:31:46;;;;;;;4.38;2.60;;;;;;;10.56;98.19;100456.50;4992599;28;20042;-76
2020/12/22 07:34:11;;;;;;;3.83;3.15;;;;;;;10.46;98.69;100459.22;4979770;28;20105;-77
2020/12/22 07:36:37;;;;;;;4.10;3.70;;;;;;;10.47;98.69;100468.75;4996566;28;20121;-75
2020/12/22 07:39:10;;;;;;;3.92;3.60;;;;;;;10.60;98.68;100472.75;4979742;28;20030;-76
2020/12/22 07:41:36;;;;;;;5.03;3.17;;;;;;;10.58;98.26;100467.66;4977132;28;20043;-77
2020/12/22 07:44:22;;;;;;;3.40;2.78;;;;;;;10.65;98.27;100476.56;4992404;28;20401;-78
2020/12/22 07:46:52;;;;;;;3.47;3.17;;;;;;;10.63;97.98;100472.44;4976118;28;20031;-76
2020/12/22 07:49:18;;;;;;;7.07;3.45;;;;;;;10.70;98.13;100484.00;4994896;28;20040;-77
2020/12/22 07:51:45;;;;;;;3.08;2.78;;;;;;;10.71;97.92;100483.00;5009026;28;20026;-78
2020/12/22 07:54:12;;;;;;;3.05;2.70;;;;;;;10.69;97.94;100490.19;5006584;28;20030;-78
2020/12/22 07:56:40;;;;;;;3.05;2.50;;;;;;;10.64;98.37;100489.81;4971137;28;20034;-78
2020/12/22 07:59:07;;;;;;;4.10;2.72;;;;;;;10.64;98.28;100484.56;4979472;28;20035;-77
2020/12/22 08:01:44;;;;;;;2.63;1.95;;;;;;;10.62;98.36;100492.59;4987819;28;20027;-77
2020/12/22 08:04:16;;;;;;;2.92;2.10;;;;;;;10.68;98.52;100492.00;4978299;28;20161;-79
2020/12/22 08:06:59;;;;;;;2.33;2.10;;;;;;;10.70;98.25;100495.28;4960133;28;20041;-78
2020/12/22 08:09:30;;;;;;;2.00;1.90;;;;;;;10.68;98.31;100492.00;4988721;28;20470;-76
2020/12/22 08:12:25;;;;;;;1.60;1.50;;;;;;;10.72;98.45;100500.38;5012891;28;20477;-77
2020/12/22 08:14:51;;;;;;;2.20;1.60;;;;;;;10.67;98.68;100505.25;4994926;28;20042;-76
2020/12/22 08:17:19;;;;;;;2.65;1.77;;;;;;;10.69;98.49;100516.44;4990541;28;20041;-76
2020/12/22 08:19:45;;;;;;;1.55;1.45;;;;;;;10.71;98.59;100511.84;5006333;28;20053;-78
2020/12/22 08:22:18;;;;;;;2.97;1.15;;;;;;;10.86;98.17;100518.19;5010111;28;20108;-78
2020/12/22 08:24:44;;;;;;;1.92;1.35;;;;;;;10.86;97.69;100506.88;5000669;28;20053;-76
2020/12/22 08:27:11;;;;;;;1.35;1.17;;;;;;;10.88;97.87;100521.47;5013437;28;20477;-78
2020/12/22 08:29:38;;;;;;;0.98;0.98;;;;;;;10.89;97.94;100523.13;4978646;28;20073;-77
2020/12/22 08:32:05;;;;;;;1.00;0.90;;;;;;;10.85;98.01;100520.94;4977949;28;20046;-77
2020/12/22 08:34:31;;;;;;;1.65;1.00;;;;;;;10.94;97.43;100522.66;5006255;28;20030;-77
2020/12/22 08:36:57;;;;;;;2.63;0.98;;;;;;;10.96;97.40;100531.19;4985001;28;20060;-77
2020/12/22 08:39:27;;;;;;;1.00;0.90;;;;;;;10.88;98.00;100528.53;4976273;28;20497;-78
2020/12/22 08:41:54;;;;;;;2.25;1.02;;;;;;;10.91;97.50;100531.66;4993479;28;20049;-76
2020/12/22 08:44:21;;;;;;;1.63;1.13;;;;;;;10.90;98.07;100537.06;4996009;28;20116;-76
2020/12/22 08:46:47;;;;;;;0.80;0.80;;;;;;;10.92;97.45;100537.72;4975706;28;20488;-77
2020/12/22 08:49:31;;;;;;;2.60;1.10;;;;;;;10.92;97.49;100540.34;4979767;28;20092;-77
2020/12/22 08:52:09;;;;;;;2.40;0.80;;;;;;;10.97;97.29;100542.53;5012251;28;20043;-77
2020/12/22 08:54:34;;;;;;;2.88;1.00;;;;;;;11.04;96.90;100552.25;4996783;28;20026;-77
2020/12/22 08:57:08;;;;;;;0.85;0.80;;;;;;;11.02;97.02;100553.38;4984758;28;20123;-79
2020/12/22 08:59:34;;;;;;;2.67;1.00;;;;;;;11.05;97.16;100561.75;4993434;28;20061;-76
2020/12/22 09:01:59;;;;;;;1.60;1.00;;;;;;;11.05;97.18;100559.13;4972390;28;20487;-79
2020/12/22 09:04:29;;;;;;;2.45;1.00;;;;;;;11.05;97.26;100574.06;4982520;28;20034;-79
2020/12/22 09:06:55;;;;;;;1.30;1.20;;;;;;;11.02;97.48;100575.22;5011001;28;20473;-80
2020/12/22 09:09:27;;;;;;;2.00;1.00;;;;;;;10.93;97.68;100575.31;4972588;28;20058;-78
2020/12/22 09:12:06;;;;;;;3.72;0.85;;;;;;;10.91;97.93;100575.47;5009574;28;20053;-77
2020/12/22 09:14:43;;;;;;;3.20;0.90;;;;;;;10.93;98.08;100583.19;4999942;28;20037;-78
2020/12/22 09:17:10;;;;;;;3.30;1.00;;;;;;;10.87;98.36;100577.56;5010654;28;20065;-78
2020/12/22 09:19:46;;;;;;;2.30;0.70;;;;;;;10.94;98.16;100587.44;4997769;28;20057;-77
2020/12/22 09:22:13;;;;;;;1.55;0.60;;;;;;;10.96;97.71;100593.38;4979747;28;20050;-79
2020/12/22 09:24:39;;;;;;;1.95;0.80;;;;;;;10.97;97.53;100581.91;4996434;28;20042;-78
2020/12/22 09:27:10;;;;;;;0.80;0.60;;;;;;;10.97;97.35;100593.22;5015501;28;20042;-77
2020/12/22 09:29:40;;;;;;;1.00;0.70;;;;;;;10.93;97.71;100596.31;4999998;28;20109;-78
2020/12/22 09:32:08;;;;;;;1.70;1.10;;;;;;;10.98;97.54;100596.66;4999057;28;20033;-78
2020/12/22 09:34:35;;;;;;;1.63;1.25;;;;;;;10.95;97.62;100596.97;5009414;28;20034;-76
2020/12/22 09:37:03;;;;;;;2.03;1.13;;;;;;;11.04;97.37;100603.94;4984403;28;20047;-77
2020/12/22 09:39:30;;;;;;;4.35;1.75;;;;;;;11.00;97.87;100605.19;4984949;28;20527;-75
2020/12/22 09:41:56;;;;;;;2.95;1.50;;;;;;;10.99;97.40;100601.75;5001400;28;20034;-75
2020/12/22 09:44:23;;;;;;;4.95;1.83;;;;;;;10.99;97.43;100601.75;4983800;28;20039;-78
2020/12/22 09:46:51;;;;;;;4.50;1.80;;;;;;;11.05;97.74;100608.19;4993147;28;20041;-77
2020/12/22 09:49:17;;;;;;;4.55;1.80;;;;;;;11.07;97.72;100612.31;4987543;28;20034;-77
2020/12/22 09:51:43;;;;;;;3.00;1.30;;;;;;;11.08;97.46;100610.53;5015102;28;20030;-77
2020/12/22 09:54:10;;;;;;;3.40;0.90;;;;;;;11.05;97.52;100611.63;5019065;28;20034;-77
2020/12/22 09:56:36;;;;;;;4.15;0.95;;;;;;;11.10;97.18;100611.19;5032574;28;20034;-77
2020/12/22 09:59:02;;;;;;;1.80;0.95;;;;;;;11.15;96.76;100618.59;4982637;28;20049;-77
2020/12/22 10:01:28;;;;;;;1.90;0.80;;;;;;;11.18;96.88;100621.75;5026171;28;20026;-77
2020/12/22 10:03:54;;;;;;;4.13;0.98;;;;;;;11.11;97.35;100615.44;4979051;28;20026;-78
2020/12/22 10:06:22;;;;;;;4.18;0.90;;;;;;;11.12;96.79;100617.13;4981333;28;20042;-76
2020/12/22 10:08:48;;;;;;;1.58;1.10;;;;;;;11.17;97.09;100617.50;4982751;28;20496;-76
2020/12/22 10:11:14;;;;;;;1.48;0.82;;;;;;;11.16;96.67;100607.94;4967691;28;20035;-76
2020/12/22 10:13:40;;;;;;;1.58;1.00;;;;;;;11.09;97.42;100617.41;4981066;28;20042;-76
2020/12/22 10:16:11;;;;;;;2.88;1.10;;;;;;;11.12;97.46;100625.00;4980128;28;20047;-78
2020/12/22 10:18:38;;;;;;;3.85;1.17;;;;;;;11.13;97.65;100621.38;4972652;28;20041;-76
2020/12/22 10:21:05;;;;;;;3.70;1.05;;;;;;;11.17;97.34;100620.13;4981592;28;20042;-77
2020/12/22 10:23:31;;;;;;;3.05;1.20;;;;;;;11.13;97.87;100620.56;4992130;28;20034;-77
2020/12/22 10:25:56;;;;;;;1.85;1.20;;;;;;;11.12;97.46;100617.13;5003661;28;20046;-77
2020/12/22 10:28:22;;;;;;;2.10;1.20;;;;;;;11.10;97.38;100629.56;4977399;28;20042;-78
2020/12/22 10:30:48;;;;;;;2.17;1.40;;;;;;;11.09;97.64;100615.63;4996892;28;20140;-77
2020/12/22 10:33:13;;;;;;;4.25;1.25;;;;;;;11.13;97.19;100621.38;5024562;28;20026;-77
2020/12/22 10:35:39;;;;;;;2.42;1.20;;;;;;;11.09;97.73;100620.03;5000960;28;20125;-77
2020/12/22 10:38:04;;;;;;;3.35;1.70;;;;;;;11.06;97.76;100626.44;5014019;28;20045;-79
2020/12/22 10:40:30;;;;;;;3.03;1.17;;;;;;;11.12;97.42;100622.38;4981410;28;20608;-77
2020/12/22 10:42:55;;;;;;;1.55;0.90;;;;;;;11.15;97.56;100626.47;4998054;28;20059;-77
2020/12/22 10:45:20;;;;;;;1.45;0.80;;;;;;;11.20;97.63;100619.78;4980643;28;20113;-76
2020/12/22 10:47:46;;;;;;;1.90;0.80;;;;;;;11.21;97.38;100620.63;4997818;28;20084;-77
2020/12/22 10:50:11;;;;;;;1.38;0.70;;;;;;;11.20;97.04;100619.78;5009015;28;20057;-77
2020/12/22 10:52:37;;;;;;;3.92;1.00;;;;;;;11.24;97.21;100634.25;4991793;28;20034;-76
2020/12/22 10:55:03;;;;;;;2.67;0.80;;;;;;;11.27;96.64;100641.00;4963256;28;20039;-77
2020/12/22 10:57:29;;;;;;;2.65;0.80;;;;;;;11.16;97.04;100649.13;5005944;28;20112;-80
2020/12/22 10:59:54;;;;;;;3.22;1.13;;;;;;;11.07;98.36;100662.19;4995114;28;20057;-78
2020/12/22 11:02:21;;;;;;;3.42;1.05;;;;;;;10.97;98.24;100686.88;5009058;28;20045;-78
2020/12/22 11:04:47;;;;;;;2.65;0.85;;;;;;;10.80;98.21;100694.59;5016497;28;20025;-78
2020/12/22 11:07:25;;;;;;;0.98;0.50;;;;;;;10.63;98.32;100698.03;5016680;28;20041;-79
2020/12/22 11:09:51;;;;;;;6.30;1.00;;;;;;;10.56;98.28;100707.44;4981774;28;20022;-76
2020/12/22 11:12:16;;;;;;;6.03;2.03;;;;;;;10.41;98.64;100707.94;5010854;28;20516;-78
2020/12/22 11:14:42;;;;;;;4.88;1.98;;;;;;;10.34;97.76;100717.38;4996870;28;20041;-78
2020/12/22 11:17:07;;;;;;;3.53;1.23;;;;;;;10.27;97.99;100729.38;4997314;28;20049;-77
2020/12/22 11:19:33;;;;;;;7.70;1.65;;;;;;;10.18;97.84;100748.59;4964713;28;20073;-78
2020/12/22 11:21:58;;;;;;;5.25;1.65;;;;;;;10.23;97.37;100749.81;4964966;28;20038;-75
2020/12/22 11:24:24;;;;;;;4.32;1.58;;;;;;;10.07;98.47;100752.19;4979446;28;20031;-77
2020/12/22 11:26:49;;;;;;;3.67;1.30;;;;;;;10.01;97.99;100765.88;5012608;28;20393;-77